createdAt,value
2023-02-19T00:00:05.330Z,99491.24
2023-02-19T00:00:36.633Z,99490.90
2023-02-19T00:01:01.103Z,99485.87
2023-02-19T00:01:51.834Z,99486.71
2023-02-19T00:02:15.424Z,99485.41
2023-02-19T00:02:38.863Z,99489.03
2023-02-19T00:03:02.625Z,99484.45
2023-02-19T00:03:27.831Z,99489.62
2023-02-19T00:04:39.786Z,99485.38
2023-02-19T00:05:03.021Z,99485.06
2023-02-19T00:05:26.469Z,99485.67
2023-02-19T00:05:49.583Z,99485.33
2023-02-19T00:06:12.597Z,99484.88
2023-02-19T00:06:35.799Z,99487.26
2023-02-19T00:07:00.464Z,99482.30
2023-02-19T00:07:23.592Z,99485.52
2023-02-19T00:07:51.598Z,99481.96
2023-02-19T00:08:14.717Z,99482.77
2023-02-19T00:08:39.159Z,99485.30
2023-02-19T00:09:02.379Z,99482.02
2023-02-19T00:09:26.104Z,99486.30
2023-02-19T00:09:49.086Z,99486.90
2023-02-19T00:10:12.027Z,99488.91
2023-02-19T00:10:35.875Z,99485.48
2023-02-19T00:11:02.727Z,99485.94
2023-02-19T00:11:27.509Z,99487.51
2023-02-19T00:11:50.840Z,99481.70
2023-02-19T00:12:13.735Z,99484.45
2023-02-19T00:12:36.844Z,99490.92
2023-02-19T00:13:01.896Z,99488.42
2023-02-19T00:13:28.004Z,99491.15
2023-02-19T00:13:53.552Z,99491.95
2023-02-19T00:14:17.705Z,99490.88
2023-02-19T00:14:40.696Z,99491.70
2023-02-19T00:15:04.114Z,99490.73
2023-02-19T00:15:27.367Z,99493.34
2023-02-19T00:15:50.554Z,99496.38
2023-02-19T00:16:40.402Z,99497.02
2023-02-19T00:17:07.151Z,99490.94
2023-02-19T00:17:33.847Z,99493.45
2023-02-19T00:17:56.762Z,99492.48
2023-02-19T00:18:23.037Z,99490.63
2023-02-19T00:18:47.585Z,99490.49
2023-02-19T00:19:12.872Z,99491.79
2023-02-19T00:19:36.266Z,99489.96
2023-02-19T00:19:59.382Z,99488.45
2023-02-19T00:20:22.599Z,99487.30
2023-02-19T00:20:45.812Z,99490.67
2023-02-19T00:21:09.693Z,99487.05
2023-02-19T00:21:33.886Z,99484.64
2023-02-19T00:21:57.301Z,99483.85
2023-02-19T00:22:20.933Z,99480.55
2023-02-19T00:22:44.143Z,99484.45
2023-02-19T00:23:07.263Z,99480.80
2023-02-19T00:23:30.787Z,99480.63
2023-02-19T00:23:54.521Z,99476.98
2023-02-19T00:24:17.738Z,99479.92
2023-02-19T00:24:41.456Z,99481.59
2023-02-19T00:25:05.506Z,99479.46
2023-02-19T00:25:31.873Z,99483.61
2023-02-19T00:25:55.427Z,99481.07
2023-02-19T00:26:19.064Z,99481.18
2023-02-19T00:26:43.588Z,99482.82
2023-02-19T00:27:06.902Z,99477.71
2023-02-19T00:27:31.333Z,99478.30
2023-02-19T00:28:22.468Z,99478.28
2023-02-19T00:28:45.994Z,99479.35
2023-02-19T00:29:09.925Z,99482.40
2023-02-19T00:29:33.059Z,99476.44
2023-02-19T00:29:56.257Z,99479.86
2023-02-19T00:30:20.315Z,99476.42
2023-02-19T00:30:43.337Z,99476.80
2023-02-19T00:31:09.839Z,99472.27
2023-02-19T00:31:35.506Z,99476.88
2023-02-19T00:31:58.690Z,99473.40
2023-02-19T00:32:22.172Z,99472.89
2023-02-19T00:32:49.918Z,99469.50
2023-02-19T00:33:13.441Z,99469.53
2023-02-19T00:33:36.661Z,99473.40
2023-02-19T00:34:04.194Z,99476.23
2023-02-19T00:34:27.591Z,99470.52
2023-02-19T00:34:50.749Z,99470.90
2023-02-19T00:35:17.117Z,99470.44
2023-02-19T00:35:41.339Z,99469.96
2023-02-19T00:36:05.060Z,99471.26
2023-02-19T00:36:29.195Z,99473.05
2023-02-19T00:36:55.481Z,99471.17
2023-02-19T00:37:18.636Z,99470.73
2023-02-19T00:37:41.711Z,99472.83
2023-02-19T00:38:05.131Z,99468.99
2023-02-19T00:38:28.862Z,99471.06
2023-02-19T00:38:54.428Z,99471.73
2023-02-19T00:39:18.759Z,99470.46
2023-02-19T00:39:42.394Z,99470.23
2023-02-19T00:40:05.820Z,99473.11
2023-02-19T00:40:28.830Z,99472.02
2023-02-19T00:40:59.102Z,99474.50
2023-02-19T00:41:23.034Z,99474.83
2023-02-19T00:41:46.630Z,99476.08
2023-02-19T00:42:09.985Z,99478.59
2023-02-19T00:42:34.219Z,99475.39
2023-02-19T00:42:57.433Z,99479.89
2023-02-19T00:43:23.919Z,99478.40
2023-02-19T00:43:47.041Z,99476.28
2023-02-19T00:44:10.969Z,99474.81
2023-02-19T00:44:33.978Z,99471.67
2023-02-19T00:44:56.995Z,99471.02
2023-02-19T00:45:20.209Z,99471.50
2023-02-19T00:45:43.444Z,99472.58
2023-02-19T00:46:06.585Z,99469.67
2023-02-19T00:46:32.480Z,99471.13
2023-02-19T00:46:55.474Z,99471.88
2023-02-19T00:47:18.540Z,99469.66
2023-02-19T00:47:41.857Z,99473.59
2023-02-19T00:48:05.176Z,99475.02
2023-02-19T00:48:28.095Z,99475.77
2023-02-19T00:48:52.729Z,99474.96
2023-02-19T00:49:17.601Z,99474.48
2023-02-19T00:49:40.806Z,99478.16
2023-02-19T00:50:04.034Z,99483.34
2023-02-19T00:50:27.237Z,99485.60
2023-02-19T00:50:50.454Z,99486.33
2023-02-19T00:51:14.077Z,99477.97
2023-02-19T00:51:38.933Z,99481.04
2023-02-19T00:52:04.384Z,99478.06
2023-02-19T00:52:27.354Z,99472.78
2023-02-19T00:52:52.464Z,99473.23
2023-02-19T00:53:16.092Z,99468.13
2023-02-19T00:53:39.522Z,99467.73
2023-02-19T00:54:03.136Z,99465.20
2023-02-19T00:54:26.153Z,99463.73
2023-02-19T00:54:49.159Z,99465.00
2023-02-19T00:55:12.377Z,99465.95
2023-02-19T00:55:36.513Z,99465.69
2023-02-19T00:56:00.039Z,99463.23
2023-02-19T00:56:23.153Z,99466.45
2023-02-19T00:56:46.288Z,99464.79
2023-02-19T00:57:09.274Z,99464.59
2023-02-19T00:57:33.923Z,99466.92
2023-02-19T00:57:58.065Z,99468.81
2023-02-19T00:58:21.078Z,99469.58
2023-02-19T00:58:44.290Z,99469.20
2023-02-19T00:59:07.835Z,99471.67
2023-02-19T00:59:31.032Z,99470.50
2023-02-19T00:59:54.246Z,99470.73
2023-02-19T01:00:17.572Z,99472.72
2023-02-19T01:00:40.781Z,99468.09
2023-02-19T01:01:04.101Z,99470.25
2023-02-19T01:01:27.541Z,99468.59
2023-02-19T01:01:50.939Z,99467.30
2023-02-19T01:02:14.256Z,99470.85
2023-02-19T01:02:37.289Z,99467.76
2023-02-19T01:03:00.599Z,99466.47
2023-02-19T01:03:25.135Z,99469.69
2023-02-19T01:03:48.457Z,99469.44
2023-02-19T01:04:13.715Z,99467.73
2023-02-19T01:04:37.879Z,99469.88
2023-02-19T01:05:01.319Z,99470.99
2023-02-19T01:05:24.695Z,99471.19
2023-02-19T01:05:49.552Z,99471.25
2023-02-19T01:06:14.599Z,99471.45
2023-02-19T01:06:37.614Z,99472.60
2023-02-19T01:07:00.831Z,99471.02
2023-02-19T01:07:24.563Z,99469.06
2023-02-19T01:07:47.676Z,99470.92
2023-02-19T01:08:10.895Z,99467.92
2023-02-19T01:08:34.647Z,99466.98
2023-02-19T01:08:59.164Z,99470.23
2023-02-19T01:09:26.985Z,99471.06
2023-02-19T01:09:49.916Z,99468.74
2023-02-19T01:10:12.913Z,99464.86
2023-02-19T01:10:38.165Z,99463.63
2023-02-19T01:11:01.789Z,99462.58
2023-02-19T01:11:27.474Z,99461.55
2023-02-19T01:11:50.426Z,99462.10
2023-02-19T01:12:13.994Z,99463.73
2023-02-19T01:12:37.623Z,99462.23
2023-02-19T01:13:01.247Z,99462.63
2023-02-19T01:13:24.465Z,99460.77
2023-02-19T01:13:47.582Z,99466.38
2023-02-19T01:14:10.993Z,99463.46
2023-02-19T01:14:34.011Z,99465.42
2023-02-19T01:14:57.943Z,99462.16
2023-02-19T01:15:26.308Z,99462.70
2023-02-19T01:15:49.899Z,99463.45
2023-02-19T01:16:39.303Z,99464.05
2023-02-19T01:17:02.508Z,99463.11
2023-02-19T01:17:26.235Z,99461.56
2023-02-19T01:18:14.556Z,99465.42
2023-02-19T01:18:37.841Z,99465.94
2023-02-19T01:19:00.947Z,99462.96
2023-02-19T01:19:24.396Z,99461.38
2023-02-19T01:19:47.683Z,99466.88
2023-02-19T01:20:10.694Z,99461.40
2023-02-19T01:20:33.812Z,99463.55
2023-02-19T01:20:57.037Z,99461.67
2023-02-19T01:21:24.542Z,99461.80
2023-02-19T01:21:48.572Z,99463.84
2023-02-19T01:22:12.911Z,99461.80
2023-02-19T01:22:36.031Z,99463.85
2023-02-19T01:22:59.764Z,99463.92
2023-02-19T01:23:23.072Z,99463.59
2023-02-19T01:23:46.491Z,99461.11
2023-02-19T01:24:09.913Z,99460.61
2023-02-19T01:24:32.977Z,99459.11
2023-02-19T01:24:56.069Z,99459.46
2023-02-19T01:25:19.153Z,99458.63
2023-02-19T01:25:42.629Z,99456.39
2023-02-19T01:26:06.454Z,99458.54
2023-02-19T01:26:30.350Z,99457.73
2023-02-19T01:26:56.634Z,99458.62
2023-02-19T01:27:20.046Z,99458.88
2023-02-19T01:27:46.025Z,99456.30
2023-02-19T01:28:09.241Z,99461.95
2023-02-19T01:28:34.705Z,99458.86
2023-02-19T01:28:58.544Z,99462.19
2023-02-19T01:29:21.559Z,99462.80
2023-02-19T01:29:44.759Z,99464.10
2023-02-19T01:30:08.215Z,99465.86
2023-02-19T01:30:31.515Z,99466.83
2023-02-19T01:30:55.028Z,99466.13
2023-02-19T01:31:19.312Z,99470.91
2023-02-19T01:31:42.638Z,99469.20
2023-02-19T01:32:31.876Z,99471.01
2023-02-19T01:32:56.472Z,99473.11
2023-02-19T01:33:19.783Z,99472.10
2023-02-19T01:33:50.334Z,99472.02
2023-02-19T01:34:13.540Z,99473.73
2023-02-19T01:34:37.146Z,99475.89
2023-02-19T01:35:00.582Z,99476.37
2023-02-19T01:35:24.106Z,99473.70
2023-02-19T01:35:47.432Z,99472.91
2023-02-19T01:36:11.155Z,99469.01
2023-02-19T01:36:34.384Z,99466.01
2023-02-19T01:36:57.792Z,99471.66
2023-02-19T01:37:20.911Z,99469.87
2023-02-19T01:37:44.363Z,99475.26
2023-02-19T01:38:10.509Z,99469.60
2023-02-19T01:38:34.552Z,99472.23
2023-02-19T01:38:59.813Z,99472.60
2023-02-19T01:39:22.918Z,99472.48
2023-02-19T01:39:47.361Z,99474.62
2023-02-19T01:40:10.993Z,99472.91
2023-02-19T01:40:34.715Z,99476.95
2023-02-19T01:40:58.443Z,99476.31
2023-02-19T01:41:22.794Z,99474.48
2023-02-19T01:41:45.930Z,99476.78
2023-02-19T01:42:13.320Z,99478.77
2023-02-19T01:42:36.424Z,99478.96
2023-02-19T01:42:59.535Z,99476.06
2023-02-19T01:43:23.065Z,99476.83
2023-02-19T01:44:00.112Z,99477.41
2023-02-19T01:44:23.609Z,99480.92
2023-02-19T01:44:46.724Z,99475.75
2023-02-19T01:45:21.607Z,99480.64
2023-02-19T01:45:44.821Z,99477.23
2023-02-19T01:46:08.742Z,99477.95
2023-02-19T01:46:32.956Z,99480.46
2023-02-19T01:46:59.164Z,99478.04
2023-02-19T01:47:22.370Z,99479.75
2023-02-19T01:47:46.011Z,99478.52
2023-02-19T01:48:23.951Z,99476.38
2023-02-19T01:48:49.830Z,99476.11
2023-02-19T01:49:17.866Z,99476.94
2023-02-19T01:49:49.023Z,99473.02
2023-02-19T01:50:12.580Z,99476.21
2023-02-19T01:50:38.751Z,99475.08
2023-02-19T01:51:05.136Z,99476.40
2023-02-19T01:51:28.354Z,99477.23
2023-02-19T01:51:53.411Z,99476.18
2023-02-19T01:52:25.952Z,99476.30
2023-02-19T01:52:48.951Z,99473.48
2023-02-19T01:53:12.671Z,99472.92
2023-02-19T01:53:39.679Z,99473.50
2023-02-19T01:54:04.495Z,99471.70
2023-02-19T01:54:28.771Z,99473.80
2023-02-19T01:54:51.777Z,99476.01
2023-02-19T01:55:15.203Z,99471.29
2023-02-19T01:55:38.210Z,99469.11
2023-02-19T01:56:01.631Z,99467.95
2023-02-19T01:56:24.756Z,99469.20
2023-02-19T01:56:47.860Z,99468.25
2023-02-19T01:57:12.435Z,99469.13
2023-02-19T01:57:37.140Z,99466.98
2023-02-19T01:58:00.272Z,99466.06
2023-02-19T01:58:24.408Z,99466.18
2023-02-19T01:58:47.774Z,99463.41
2023-02-19T01:59:14.397Z,99462.94
2023-02-19T01:59:40.095Z,99461.55
2023-02-19T02:00:06.002Z,99456.80
2023-02-19T02:00:36.608Z,99459.27
2023-02-19T02:01:00.198Z,99462.33
2023-02-19T02:01:23.298Z,99458.52
2023-02-19T02:01:46.323Z,99458.20
2023-02-19T02:02:10.764Z,99462.27
2023-02-19T02:02:33.959Z,99462.17
2023-02-19T02:02:59.732Z,99459.96
2023-02-19T02:03:22.881Z,99462.27
2023-02-19T02:03:47.060Z,99460.38
2023-02-19T02:04:13.284Z,99457.81
2023-02-19T02:04:37.094Z,99459.58
2023-02-19T02:05:00.929Z,99459.19
2023-02-19T02:05:25.682Z,99459.00
2023-02-19T02:06:02.496Z,99463.86
2023-02-19T02:06:30.312Z,99463.45
2023-02-19T02:06:54.355Z,99464.70
2023-02-19T02:07:37.098Z,99461.86
2023-02-19T02:08:19.237Z,99460.70
2023-02-19T02:09:00.901Z,99462.89
2023-02-19T02:09:44.312Z,99458.05
2023-02-19T02:10:20.644Z,99463.85
2023-02-19T02:10:48.969Z,99463.25
2023-02-19T02:11:16.749Z,99465.75
2023-02-19T02:11:41.024Z,99467.77
2023-02-19T02:12:04.267Z,99469.80
2023-02-19T02:12:29.707Z,99469.88
2023-02-19T02:12:53.541Z,99469.27
2023-02-19T02:13:16.652Z,99469.73
2023-02-19T02:13:40.994Z,99470.35
2023-02-19T02:14:04.727Z,99475.64
2023-02-19T02:14:29.060Z,99473.69
2023-02-19T02:14:52.593Z,99471.86
2023-02-19T02:15:16.625Z,99475.05
2023-02-19T02:15:54.093Z,99478.25
2023-02-19T02:16:36.608Z,99472.78
2023-02-19T02:17:17.512Z,99475.39
2023-02-19T02:17:49.623Z,99477.81
2023-02-19T02:18:35.950Z,99480.11
2023-02-19T02:18:59.068Z,99483.71
2023-02-19T02:19:31.347Z,99482.89
2023-02-19T02:19:54.400Z,99483.59
2023-02-19T02:20:18.034Z,99483.23
2023-02-19T02:20:46.966Z,99484.74
2023-02-19T02:21:26.182Z,99483.84
2023-02-19T02:21:52.526Z,99485.30
2023-02-19T02:22:24.128Z,99484.13
2023-02-19T02:22:54.401Z,99482.30
2023-02-19T02:23:41.880Z,99484.30
2023-02-19T02:24:13.663Z,99485.41
2023-02-19T02:24:44.039Z,99485.48
2023-02-19T02:25:26.384Z,99487.19
2023-02-19T02:25:49.804Z,99488.95
2023-02-19T02:26:30.993Z,99487.73
2023-02-19T02:26:57.818Z,99485.19
2023-02-19T02:27:33.219Z,99486.80
2023-02-19T02:28:08.498Z,99487.41
2023-02-19T02:29:04.417Z,99490.08
2023-02-19T02:30:02.066Z,99489.52
2023-02-19T02:30:39.602Z,99495.01
2023-02-19T02:31:03.475Z,99490.55
2023-02-19T02:31:31.100Z,99493.58
2023-02-19T02:31:54.941Z,99489.25
2023-02-19T02:32:27.550Z,99488.36
2023-02-19T02:33:05.495Z,99489.09
2023-02-19T02:33:28.549Z,99485.84
2023-02-19T02:34:15.243Z,99486.73
2023-02-19T02:34:42.143Z,99489.61
2023-02-19T02:35:07.851Z,99488.36
2023-02-19T02:35:38.717Z,99486.16
2023-02-19T02:36:07.360Z,99484.98
2023-02-19T02:36:34.951Z,99486.73
2023-02-19T02:36:58.066Z,99485.91
2023-02-19T02:37:22.681Z,99487.36
2023-02-19T02:37:46.341Z,99485.10
2023-02-19T02:38:10.584Z,99487.67
2023-02-19T02:38:40.341Z,99488.83
2023-02-19T02:39:05.335Z,99484.06
2023-02-19T02:39:30.666Z,99482.72
2023-02-19T02:39:54.113Z,99487.33
2023-02-19T02:40:19.971Z,99488.30
2023-02-19T02:40:44.518Z,99487.31
2023-02-19T02:41:08.271Z,99484.88
2023-02-19T02:41:32.374Z,99486.83
2023-02-19T02:42:17.688Z,99486.06
2023-02-19T02:42:44.573Z,99489.89
2023-02-19T02:43:08.451Z,99486.09
2023-02-19T02:43:32.758Z,99485.36
2023-02-19T02:43:55.756Z,99486.52
2023-02-19T02:44:21.356Z,99486.14
2023-02-19T02:45:08.472Z,99487.02
2023-02-19T02:45:36.185Z,99487.92
2023-02-19T02:46:34.697Z,99485.02
2023-02-19T02:46:58.008Z,99488.04
2023-02-19T02:47:39.836Z,99488.27
2023-02-19T02:48:05.103Z,99487.29
2023-02-19T02:48:47.042Z,99488.91
2023-02-19T02:49:17.101Z,99489.65
2023-02-19T02:50:01.184Z,99490.95
2023-02-19T02:50:25.234Z,99491.02
2023-02-19T02:50:54.889Z,99489.28
2023-02-19T02:51:19.114Z,99490.34
2023-02-19T02:51:47.547Z,99488.48
2023-02-19T02:52:36.844Z,99486.80
2023-02-19T02:53:21.012Z,99491.05
2023-02-19T02:54:06.236Z,99492.23
2023-02-19T02:54:48.984Z,99492.81
2023-02-19T02:55:12.409Z,99493.02
2023-02-19T02:55:36.354Z,99492.41
2023-02-19T02:56:00.586Z,99494.63
2023-02-19T02:56:24.413Z,99497.28
2023-02-19T02:56:47.932Z,99495.48
2023-02-19T02:57:15.052Z,99497.65
2023-02-19T02:57:51.030Z,99495.77
2023-02-19T02:58:14.144Z,99497.27
2023-02-19T02:58:37.088Z,99500.34
2023-02-19T02:59:04.000Z,99498.59
2023-02-19T02:59:29.315Z,99502.13
2023-02-19T02:59:52.333Z,99501.96
2023-02-19T03:00:17.488Z,99501.11
2023-02-19T03:00:59.635Z,99500.48
2023-02-19T03:02:04.021Z,99502.47
2023-02-19T03:02:28.784Z,99501.86
2023-02-19T03:02:52.226Z,99503.34
2023-02-19T03:03:15.443Z,99503.70
2023-02-19T03:03:38.660Z,99503.21
2023-02-19T03:04:03.187Z,99505.40
2023-02-19T03:04:33.184Z,99508.72
2023-02-19T03:05:35.072Z,99507.14
2023-02-19T03:06:03.081Z,99506.03
2023-02-19T03:06:26.701Z,99509.06
2023-02-19T03:06:50.736Z,99509.09
2023-02-19T03:07:13.948Z,99509.50
2023-02-19T03:07:42.182Z,99508.64
2023-02-19T03:08:24.114Z,99512.73
2023-02-19T03:09:23.733Z,99513.52
2023-02-19T03:09:49.577Z,99512.38
2023-02-19T03:10:15.692Z,99510.89
2023-02-19T03:10:42.195Z,99514.29
2023-02-19T03:11:29.430Z,99515.93
2023-02-19T03:12:12.079Z,99517.05
2023-02-19T03:12:54.725Z,99516.38
2023-02-19T03:13:41.010Z,99516.16
2023-02-19T03:14:33.492Z,99515.63
2023-02-19T03:15:16.483Z,99512.77
2023-02-19T03:16:14.220Z,99512.47
2023-02-19T03:16:56.219Z,99513.52
2023-02-19T03:17:41.606Z,99513.59
2023-02-19T03:18:24.199Z,99513.92
2023-02-19T03:19:07.828Z,99514.00
2023-02-19T03:19:31.350Z,99512.34
2023-02-19T03:19:56.405Z,99514.84
2023-02-19T03:20:20.234Z,99515.06
2023-02-19T03:20:45.703Z,99514.09
2023-02-19T03:21:09.597Z,99518.67
2023-02-19T03:21:33.882Z,99514.73
2023-02-19T03:21:59.344Z,99515.68
2023-02-19T03:22:30.036Z,99514.96
2023-02-19T03:22:56.360Z,99517.89
2023-02-19T03:23:20.956Z,99518.25
2023-02-19T03:24:03.497Z,99517.90
2023-02-19T03:24:47.987Z,99521.60
2023-02-19T03:25:33.904Z,99523.70
2023-02-19T03:26:06.127Z,99523.38
2023-02-19T03:26:43.559Z,99524.80
2023-02-19T03:27:06.785Z,99523.82
2023-02-19T03:27:33.977Z,99523.79
2023-02-19T03:27:57.809Z,99524.14
2023-02-19T03:28:41.378Z,99523.95
2023-02-19T03:29:26.353Z,99523.42
2023-02-19T03:29:57.175Z,99526.35
2023-02-19T03:30:21.677Z,99525.85
2023-02-19T03:30:46.461Z,99525.73
2023-02-19T03:31:10.755Z,99527.50
2023-02-19T03:31:34.492Z,99526.49
2023-02-19T03:31:58.707Z,99526.88
2023-02-19T03:32:25.971Z,99527.48
2023-02-19T03:32:56.060Z,99522.29
2023-02-19T03:33:20.184Z,99522.87
2023-02-19T03:33:43.701Z,99523.30
2023-02-19T03:34:08.838Z,99524.55
2023-02-19T03:34:35.707Z,99524.80
2023-02-19T03:35:10.025Z,99522.41
2023-02-19T03:35:35.292Z,99524.07
2023-02-19T03:36:00.348Z,99520.84
2023-02-19T03:36:27.198Z,99521.23
2023-02-19T03:36:54.044Z,99519.02
2023-02-19T03:37:35.054Z,99523.08
2023-02-19T03:38:18.858Z,99522.92
2023-02-19T03:38:49.611Z,99521.13
2023-02-19T03:39:44.542Z,99524.70
2023-02-19T03:40:09.639Z,99522.63
2023-02-19T03:40:34.629Z,99522.73
2023-02-19T03:41:23.628Z,99526.64
2023-02-19T03:41:52.982Z,99524.96
2023-02-19T03:42:35.736Z,99527.39
2023-02-19T03:43:01.318Z,99526.29
2023-02-19T03:43:33.946Z,99523.89
2023-02-19T03:44:08.906Z,99525.02
2023-02-19T03:44:34.983Z,99525.90
2023-02-19T03:44:58.723Z,99523.95
2023-02-19T03:45:21.851Z,99525.09
2023-02-19T03:46:11.553Z,99522.22
2023-02-19T03:46:53.058Z,99525.30
2023-02-19T03:47:24.989Z,99526.30
2023-02-19T03:47:58.418Z,99525.53
2023-02-19T03:48:23.978Z,99526.52
2023-02-19T03:48:59.893Z,99526.45
2023-02-19T03:49:42.736Z,99522.38
2023-02-19T03:50:16.532Z,99524.21
2023-02-19T03:50:43.581Z,99529.35
2023-02-19T03:51:09.928Z,99529.40
2023-02-19T03:51:39.340Z,99530.16
2023-02-19T03:52:09.911Z,99532.25
2023-02-19T03:52:32.994Z,99532.80
2023-02-19T03:53:06.699Z,99530.73
2023-02-19T03:53:31.436Z,99533.22
2023-02-19T03:54:13.458Z,99533.68
2023-02-19T03:54:45.259Z,99530.06
2023-02-19T03:55:17.479Z,99530.54
2023-02-19T03:55:54.296Z,99533.00
2023-02-19T03:56:20.196Z,99533.41
2023-02-19T03:57:16.624Z,99533.34
2023-02-19T03:57:45.672Z,99532.92
2023-02-19T03:58:12.361Z,99533.67
2023-02-19T03:58:39.180Z,99534.07
2023-02-19T03:59:09.742Z,99535.81
2023-02-19T03:59:35.411Z,99539.41
2023-02-19T04:00:21.639Z,99534.95
2023-02-19T04:00:55.495Z,99539.94
2023-02-19T04:01:30.475Z,99541.27
2023-02-19T04:01:54.748Z,99537.52
2023-02-19T04:02:43.795Z,99537.79
2023-02-19T04:03:07.225Z,99537.54
2023-02-19T04:03:43.553Z,99541.42
2023-02-19T04:04:27.261Z,99539.98
2023-02-19T04:04:54.574Z,99537.45
2023-02-19T04:05:19.268Z,99535.63
2023-02-19T04:05:44.724Z,99538.23
2023-02-19T04:06:13.946Z,99542.59
2023-02-19T04:06:37.099Z,99540.66
2023-02-19T04:07:00.987Z,99539.05
2023-02-19T04:07:25.366Z,99538.45
2023-02-19T04:07:49.840Z,99541.86
2023-02-19T04:08:15.786Z,99539.68
2023-02-19T04:08:42.685Z,99540.48
2023-02-19T04:09:06.617Z,99538.81
2023-02-19T04:09:32.086Z,99540.88
2023-02-19T04:10:00.890Z,99538.98
2023-02-19T04:10:32.327Z,99543.44
2023-02-19T04:10:55.849Z,99542.02
2023-02-19T04:11:21.519Z,99536.27
2023-02-19T04:11:45.165Z,99535.39
2023-02-19T04:12:08.390Z,99536.47
2023-02-19T04:12:32.097Z,99538.76
2023-02-19T04:13:06.766Z,99538.48
2023-02-19T04:13:30.283Z,99532.97
2023-02-19T04:14:00.055Z,99539.17
2023-02-19T04:14:24.080Z,99537.98
2023-02-19T04:15:12.462Z,99536.98
2023-02-19T04:15:35.774Z,99539.88
2023-02-19T04:16:01.397Z,99537.00
2023-02-19T04:16:28.790Z,99536.39
2023-02-19T04:17:07.011Z,99536.61
2023-02-19T04:17:49.552Z,99538.64
2023-02-19T04:18:16.445Z,99538.19
2023-02-19T04:18:40.229Z,99536.34
2023-02-19T04:19:04.624Z,99538.30
2023-02-19T04:19:27.936Z,99537.45
2023-02-19T04:19:51.472Z,99537.48
2023-02-19T04:20:15.296Z,99536.52
2023-02-19T04:20:39.530Z,99536.69
2023-02-19T04:21:02.746Z,99538.23
2023-02-19T04:21:25.860Z,99540.46
2023-02-19T04:21:49.083Z,99539.70
2023-02-19T04:22:13.930Z,99540.55
2023-02-19T04:22:38.477Z,99540.97
2023-02-19T04:23:01.902Z,99539.36
2023-02-19T04:23:25.135Z,99539.98
2023-02-19T04:23:48.637Z,99539.05
2023-02-19T04:24:13.078Z,99538.09
2023-02-19T04:24:38.970Z,99538.77
2023-02-19T04:25:01.973Z,99535.91
2023-02-19T04:25:25.343Z,99539.52
2023-02-19T04:25:49.838Z,99537.39
2023-02-19T04:26:13.455Z,99539.27
2023-02-19T04:26:36.470Z,99539.79
2023-02-19T04:26:59.599Z,99545.55
2023-02-19T04:27:29.025Z,99542.44
2023-02-19T04:27:52.148Z,99541.42
2023-02-19T04:28:16.949Z,99542.54
2023-02-19T04:28:40.222Z,99542.95
2023-02-19T04:29:03.943Z,99545.05
2023-02-19T04:29:28.087Z,99541.85
2023-02-19T04:29:51.722Z,99539.83
2023-02-19T04:30:14.689Z,99543.18
2023-02-19T04:30:38.316Z,99545.68
2023-02-19T04:31:01.869Z,99542.46
2023-02-19T04:31:25.257Z,99544.44
2023-02-19T04:31:48.431Z,99546.06
2023-02-19T04:32:11.682Z,99543.34
2023-02-19T04:32:34.838Z,99546.31
2023-02-19T04:32:59.707Z,99544.10
2023-02-19T04:33:23.028Z,99543.45
2023-02-19T04:33:46.838Z,99544.75
2023-02-19T04:34:09.792Z,99544.10
2023-02-19T04:34:33.388Z,99545.54
2023-02-19T04:34:56.486Z,99545.60
2023-02-19T04:35:19.702Z,99550.66
2023-02-19T04:35:43.132Z,99548.17
2023-02-19T04:36:07.064Z,99550.48
2023-02-19T04:36:30.992Z,99550.70
2023-02-19T04:36:54.201Z,99549.65
2023-02-19T04:37:17.519Z,99551.42
2023-02-19T04:37:40.632Z,99550.84
2023-02-19T04:38:03.746Z,99551.52
2023-02-19T04:38:26.673Z,99551.27
2023-02-19T04:38:50.217Z,99553.45
2023-02-19T04:39:13.394Z,99551.09
2023-02-19T04:39:36.610Z,99549.46
2023-02-19T04:40:00.072Z,99549.08
2023-02-19T04:40:23.152Z,99551.97
2023-02-19T04:40:47.299Z,99552.60
2023-02-19T04:41:11.409Z,99549.37
2023-02-19T04:41:35.252Z,99549.84
2023-02-19T04:41:58.365Z,99551.66
2023-02-19T04:42:21.495Z,99549.89
2023-02-19T04:42:45.104Z,99551.75
2023-02-19T04:43:08.221Z,99551.75
2023-02-19T04:43:31.534Z,99554.52
2023-02-19T04:43:54.769Z,99552.09
2023-02-19T04:44:18.273Z,99552.76
2023-02-19T04:44:41.407Z,99549.33
2023-02-19T04:45:04.809Z,99552.48
2023-02-19T04:45:28.848Z,99553.58
2023-02-19T04:45:51.981Z,99549.98
2023-02-19T04:46:15.411Z,99550.70
2023-02-19T04:47:06.599Z,99553.73
2023-02-19T04:47:31.578Z,99553.05
2023-02-19T04:47:54.488Z,99552.93
2023-02-19T04:48:43.368Z,99554.88
2023-02-19T04:49:06.483Z,99555.77
2023-02-19T04:49:29.701Z,99559.61
2023-02-19T04:49:56.801Z,99557.38
2023-02-19T04:50:19.786Z,99557.77
2023-02-19T04:50:43.338Z,99557.13
2023-02-19T04:51:07.557Z,99555.55
2023-02-19T04:51:34.707Z,99555.73
2023-02-19T04:51:57.795Z,99556.72
2023-02-19T04:52:21.431Z,99560.67
2023-02-19T04:52:44.635Z,99557.67
2023-02-19T04:53:08.057Z,99555.16
2023-02-19T04:53:31.534Z,99559.27
2023-02-19T04:53:56.532Z,99560.77
2023-02-19T04:54:19.649Z,99557.02
2023-02-19T04:54:42.661Z,99564.40
2023-02-19T04:55:08.030Z,99562.23
2023-02-19T04:55:31.038Z,99561.77
2023-02-19T04:55:54.568Z,99563.66
2023-02-19T04:56:18.801Z,99563.42
2023-02-19T04:56:42.297Z,99563.75
2023-02-19T04:57:05.547Z,99564.59
2023-02-19T04:57:28.959Z,99564.59
2023-02-19T04:57:52.293Z,99564.40
2023-02-19T04:58:15.903Z,99566.48
2023-02-19T04:58:39.168Z,99564.27
2023-02-19T04:59:02.649Z,99567.36
2023-02-19T04:59:25.962Z,99568.08
2023-02-19T04:59:48.971Z,99568.64
2023-02-19T05:00:12.206Z,99568.60
2023-02-19T05:00:36.326Z,99566.38
2023-02-19T05:01:03.546Z,99567.78
2023-02-19T05:01:26.848Z,99565.14
2023-02-19T05:01:49.975Z,99564.11
2023-02-19T05:02:13.598Z,99562.23
2023-02-19T05:02:36.907Z,99562.73
2023-02-19T05:03:01.161Z,99564.50
2023-02-19T05:03:24.270Z,99560.98
2023-02-19T05:03:47.791Z,99562.08
2023-02-19T05:04:11.141Z,99560.98
2023-02-19T05:04:34.387Z,99561.61
2023-02-19T05:04:57.543Z,99560.01
2023-02-19T05:05:20.751Z,99560.24
2023-02-19T05:05:47.447Z,99564.26
2023-02-19T05:06:40.634Z,99563.09
2023-02-19T05:07:03.745Z,99560.27
2023-02-19T05:07:27.222Z,99561.33
2023-02-19T05:07:50.483Z,99562.95
2023-02-19T05:08:14.820Z,99562.54
2023-02-19T05:08:38.755Z,99563.64
2023-02-19T05:09:02.074Z,99560.98
2023-02-19T05:09:25.495Z,99566.45
2023-02-19T05:09:48.613Z,99564.34
2023-02-19T05:10:11.622Z,99560.46
2023-02-19T05:10:35.066Z,99564.12
2023-02-19T05:10:59.218Z,99563.77
2023-02-19T05:11:25.584Z,99564.30
2023-02-19T05:11:55.121Z,99564.46
2023-02-19T05:12:19.464Z,99564.31
2023-02-19T05:12:42.492Z,99568.17
2023-02-19T05:13:05.898Z,99567.84
2023-02-19T05:13:29.136Z,99566.79
2023-02-19T05:13:52.227Z,99569.42
2023-02-19T05:14:15.442Z,99568.25
2023-02-19T05:14:39.886Z,99569.93
2023-02-19T05:15:02.881Z,99565.41
2023-02-19T05:15:26.217Z,99568.75
2023-02-19T05:15:59.420Z,99565.28
2023-02-19T05:16:22.478Z,99566.66
2023-02-19T05:16:45.684Z,99564.27
2023-02-19T05:17:12.073Z,99566.63
2023-02-19T05:17:38.866Z,99568.81
2023-02-19T05:18:01.985Z,99568.59
2023-02-19T05:18:25.226Z,99569.54
2023-02-19T05:19:36.279Z,99568.40
2023-02-19T05:20:02.407Z,99566.08